KTCC/TCC METAR and TAF weather

Enter ICAO airport designator
Station Type Date Time Source
KTCC METAR 2021/03/07 22:53 UTC NOAA

KTCC 072253Z AUTO 22009KT 10SM CLR 22/M03 A3008 RMK AO2 SLP153 T02171033


Station Type Date Time Source
KTCC Decoded METAR 2021/03/07 22:53 UTC NOAA

TUCUMCARI MUNICIPAL AIRPORT , NM, United States (KTCC) 35-11N 103-36W 1235M
Mar 07, 2021 - 05:53 PM EST / 2021.03.07 2253 UTC
Wind: from the SW (220 degrees) at 10 MPH (9 KT):0
Visibility: 10 mile(s):0
Sky conditions: clear
Temperature: 71.1 F (21.7 C)
Dew Point: 26.1 F (-3.3 C)
Relative Humidity: 18%
Pressure (altimeter): 30.08 in. Hg (1018 hPa)
ob: KTCC 072253Z AUTO 22009KT 10SM CLR 22/M03 A3008 RMK AO2 SLP153 T02171033
cycle: 23

Station Type Date Time Source
KTCC TAF 2021/03/07 22:30 UTC NOAA

TAF
AMD KTCC 072227Z 0722/0818 22011G21KT P6SM SKC
FM080200 21011KT P6SM SCT250
FM081600 22014G24KT P6SM BKN200

Example: see airport list